Time;durP1;ratioP1;P1;durP2;ratioP2;P2;SDS_P1;SDS_P2;PMS_P1;PMS_P2;Temp;Humidity;BMP_temperature;BMP_pressure;BME280_temperature;BME280_humidity;BME280_pressure;Samples;Min_cycle;Max_cycle;Signal;HPM_P1;HPM_P2
2021/11/05 00:00:26;;;;;;;38.43;21.80;;;6.60;99.90;;;;;;5051742;28;20175;-66
2021/11/05 00:02:54;;;;;;;46.07;20.07;;;6.80;99.90;;;;;;5053139;28;20217;-66
2021/11/05 00:05:27;;;;;;;40.80;20.63;;;6.80;99.90;;;;;;5052943;28;20206;-66
2021/11/05 00:07:52;;;;;;;33.73;19.43;;;6.90;99.90;;;;;;5052782;28;20539;-66
2021/11/05 00:10:19;;;;;;;34.47;19.67;;;7.10;99.90;;;;;;5050866;28;20175;-66
2021/11/05 00:12:45;;;;;;;36.47;19.57;;;7.10;99.90;;;;;;5052679;28;20277;-66
2021/11/05 00:15:11;;;;;;;37.00;19.77;;;7.10;99.90;;;;;;5052567;28;20261;-66
2021/11/05 00:17:37;;;;;;;35.67;21.00;;;7.20;99.90;;;;;;5052566;28;20167;-66
2021/11/05 00:20:04;;;;;;;31.83;17.73;;;7.20;99.90;;;;;;5050816;28;20263;-66
2021/11/05 00:22:30;;;;;;;33.10;18.80;;;7.30;99.90;;;;;;5052381;28;20735;-66
2021/11/05 00:24:56;;;;;;;32.10;19.50;;;7.30;99.90;;;;;;5052028;28;20266;-66
2021/11/05 00:27:21;;;;;;;29.07;19.63;;;7.40;99.90;;;;;;5052111;28;20205;-67
2021/11/05 00:29:47;;;;;;;31.90;19.20;;;7.40;99.90;;;;;;5051676;28;20167;-66
2021/11/05 00:32:14;;;;;;;28.70;18.00;;;7.40;99.90;;;;;;5052443;28;20163;-67
2021/11/05 00:34:40;;;;;;;27.27;17.87;;;7.40;99.90;;;;;;5051921;28;20676;-66
2021/11/05 00:37:06;;;;;;;27.70;16.80;;;7.50;99.90;;;;;;5052281;28;20175;-66
2021/11/05 00:39:32;;;;;;;30.67;17.33;;;7.50;99.90;;;;;;5051775;28;20181;-66
2021/11/05 00:41:59;;;;;;;29.60;17.80;;;7.50;99.90;;;;;;5051970;28;20171;-66
2021/11/05 00:44:24;;;;;;;32.77;19.07;;;7.50;99.90;;;;;;5051920;28;20183;-66
2021/11/05 00:46:50;;;;;;;29.73;17.83;;;7.50;99.90;;;;;;5052037;28;20544;-66
2021/11/05 00:49:16;;;;;;;36.87;19.23;;;7.50;99.90;;;;;;5051426;28;20670;-67
2021/11/05 00:51:41;;;;;;;35.07;20.97;;;7.50;99.90;;;;;;5051836;28;20217;-66
2021/11/05 00:54:08;;;;;;;36.50;23.13;;;7.60;99.90;;;;;;5051490;28;20301;-66
2021/11/05 00:56:35;;;;;;;44.53;25.03;;;7.50;99.90;;;;;;5052173;28;20527;-66
2021/11/05 00:59:00;;;;;;;42.47;22.87;;;7.60;99.90;;;;;;5051315;28;20245;-66
2021/11/05 01:01:26;;;;;;;43.77;22.67;;;7.70;99.90;;;;;;5051940;28;20566;-66
2021/11/05 01:03:51;;;;;;;45.77;22.43;;;7.70;99.90;;;;;;5050228;28;20203;-66
2021/11/05 01:06:20;;;;;;;43.30;21.27;;;7.70;99.90;;;;;;5051776;28;20171;-66
2021/11/05 01:08:45;;;;;;;43.60;21.57;;;7.70;99.90;;;;;;5051703;28;20209;-66
2021/11/05 01:11:11;;;;;;;47.47;22.67;;;7.80;99.90;;;;;;5051230;28;20668;-66
2021/11/05 01:13:37;;;;;;;54.47;22.70;;;7.80;99.90;;;;;;5051523;28;20198;-66
2021/11/05 01:16:03;;;;;;;53.87;24.53;;;7.80;99.90;;;;;;5051434;28;20182;-66
2021/11/05 01:18:29;;;;;;;52.60;22.43;;;7.80;99.90;;;;;;5051693;28;20442;-66
2021/11/05 01:20:54;;;;;;;47.17;22.53;;;7.80;99.90;;;;;;5051268;28;20174;-67
2021/11/05 01:23:21;;;;;;;54.03;22.87;;;7.80;99.90;;;;;;5051223;28;20251;-67
2021/11/05 01:25:48;;;;;;;49.27;24.23;;;7.80;99.90;;;;;;5050025;28;20178;-67
2021/11/05 01:28:14;;;;;;;52.47;23.73;;;7.90;99.90;;;;;;5051342;28;20648;-67
2021/11/05 01:30:40;;;;;;;56.50;23.90;;;7.90;99.90;;;;;;5051403;28;20186;-66
2021/11/05 01:33:09;;;;;;;50.77;24.37;;;7.80;99.90;;;;;;5051037;28;20210;-67
2021/11/05 01:35:36;;;;;;;52.97;24.07;;;7.90;99.90;;;;;;5051529;28;20670;-66
2021/11/05 01:38:03;;;;;;;51.60;24.30;;;7.90;99.90;;;;;;5056007;28;20596;-66
2021/11/05 01:40:29;;;;;;;54.93;25.53;;;7.90;99.90;;;;;;5057654;28;20189;-67
2021/11/05 01:42:55;;;;;;;54.23;26.37;;;7.90;99.90;;;;;;5057836;28;20273;-66
2021/11/05 01:45:21;;;;;;;49.73;24.83;;;8.00;99.90;;;;;;5057817;28;20178;-67
2021/11/05 01:47:47;;;;;;;63.37;26.47;;;8.00;99.90;;;;;;5057959;28;20526;-66
2021/11/05 01:50:14;;;;;;;55.33;23.83;;;8.00;99.90;;;;;;5057593;28;20678;-66
2021/11/05 01:52:41;;;;;;;61.67;24.80;;;8.00;99.90;;;;;;5056313;28;20206;-67
2021/11/05 01:55:08;;;;;;;60.47;25.27;;;8.00;99.90;;;;;;5057947;28;20604;-66
2021/11/05 01:57:35;;;;;;;54.73;26.07;;;7.90;99.90;;;;;;5057912;28;20170;-66
2021/11/05 02:00:00;;;;;;;49.47;24.50;;;7.90;99.90;;;;;;5057113;28;20217;-66
2021/11/05 02:02:26;;;;;;;55.03;23.57;;;7.80;99.90;;;;;;5057820;28;20567;-66
2021/11/05 02:04:52;;;;;;;54.90;25.80;;;7.80;99.90;;;;;;5057424;28;20182;-66
2021/11/05 02:07:20;;;;;;;62.93;24.73;;;7.80;99.90;;;;;;5057871;28;20170;-67
2021/11/05 02:09:46;;;;;;;58.43;24.23;;;7.80;99.90;;;;;;5057193;28;20227;-66
2021/11/05 02:12:12;;;;;;;58.73;25.57;;;7.80;99.90;;;;;;5058312;28;20700;-66
2021/11/05 02:14:39;;;;;;;62.33;25.33;;;7.80;99.90;;;;;;5056214;28;20234;-66
2021/11/05 02:17:05;;;;;;;60.80;25.10;;;7.80;99.90;;;;;;5057480;28;20179;-66
2021/11/05 02:19:33;;;;;;;63.10;25.17;;;7.90;99.90;;;;;;5057369;28;20167;-67
2021/11/05 02:22:00;;;;;;;63.73;24.77;;;7.80;99.90;;;;;;5057267;28;20806;-66
2021/11/05 02:24:28;;;;;;;80.13;26.47;;;7.90;99.90;;;;;;5057892;28;20177;-66
2021/11/05 02:26:54;;;;;;;58.37;25.00;;;7.90;99.90;;;;;;5057320;28;20190;-66
2021/11/05 02:29:21;;;;;;;74.60;25.27;;;7.90;99.90;;;;;;5057425;28;20178;-66
2021/11/05 02:31:48;;;;;;;64.73;23.90;;;7.90;99.90;;;;;;5057171;28;20185;-66
2021/11/05 02:34:13;;;;;;;63.10;22.90;;;7.90;99.90;;;;;;5057496;28;20640;-66
2021/11/05 02:36:39;;;;;;;56.90;23.37;;;7.90;99.90;;;;;;5057263;28;20257;-66
2021/11/05 02:39:07;;;;;;;44.63;21.97;;;7.90;99.90;;;;;;5057348;28;20170;-66
2021/11/05 02:41:44;;;;;;;57.50;23.50;;;7.90;99.90;;;;;;5057220;28;20607;-66
2021/11/05 02:44:10;;;;;;;62.73;23.10;;;7.90;99.90;;;;;;5057495;28;20237;-66
2021/11/05 02:46:36;;;;;;;63.43;21.53;;;8.00;99.90;;;;;;5057204;28;20572;-66
2021/11/05 02:49:06;;;;;;;46.20;20.57;;;8.00;99.90;;;;;;5054416;28;20204;-66
2021/11/05 02:51:32;;;;;;;59.97;23.07;;;8.00;99.90;;;;;;5054162;28;20228;-66
2021/11/05 02:54:00;;;;;;;55.07;24.00;;;8.00;99.90;;;;;;5054074;28;20210;-66
2021/11/05 02:56:25;;;;;;;47.30;20.70;;;8.00;99.90;;;;;;5053713;28;20224;-66
2021/11/05 02:58:52;;;;;;;60.33;22.53;;;8.00;99.90;;;;;;5054027;28;20159;-66
2021/11/05 03:01:19;;;;;;;51.70;20.80;;;7.90;99.90;;;;;;5053699;28;20652;-66
2021/11/05 03:03:45;;;;;;;49.30;19.60;;;7.90;99.90;;;;;;5053895;28;20197;-66
2021/11/05 03:06:11;;;;;;;52.90;21.20;;;7.80;99.90;;;;;;5053842;28;20183;-66
2021/11/05 03:08:37;;;;;;;42.17;19.13;;;7.80;99.90;;;;;;5054049;28;20706;-69
2021/11/05 03:11:02;;;;;;;38.60;18.97;;;7.80;99.90;;;;;;5053738;28;20209;-69
2021/11/05 03:13:28;;;;;;;55.40;19.17;;;7.70;99.90;;;;;;5055218;28;20264;-72
2021/11/05 03:15:54;;;;;;;59.30;22.77;;;7.70;99.90;;;;;;5054999;28;20248;-71
2021/11/05 03:18:20;;;;;;;52.50;22.83;;;7.70;99.90;;;;;;5055096;28;20175;-69
2021/11/05 03:20:47;;;;;;;44.27;20.80;;;7.70;99.90;;;;;;5054348;28;20175;-69
2021/11/05 03:23:14;;;;;;;46.63;21.63;;;7.80;99.90;;;;;;5054701;28;20264;-68
2021/11/05 03:25:40;;;;;;;48.60;21.60;;;7.80;99.90;;;;;;5054688;28;20189;-68
2021/11/05 03:28:06;;;;;;;41.13;21.00;;;7.90;99.90;;;;;;5054438;28;20167;-69
2021/11/05 03:30:32;;;;;;;46.63;20.97;;;7.90;99.90;;;;;;5054546;28;20167;-70
2021/11/05 03:32:58;;;;;;;51.83;21.53;;;8.00;99.90;;;;;;5054039;28;20279;-73
2021/11/05 03:35:24;;;;;;;47.30;20.77;;;8.00;99.90;;;;;;5054844;28;20179;-70
2021/11/05 03:37:50;;;;;;;37.47;22.93;;;8.00;99.90;;;;;;5054413;28;20174;-70
2021/11/05 03:40:19;;;;;;;43.60;23.33;;;8.10;99.90;;;;;;5052975;28;20167;-70
2021/11/05 03:42:48;;;;;;;38.53;18.87;;;8.10;99.90;;;;;;5054171;28;20190;-71
2021/11/05 03:45:16;;;;;;;45.43;19.27;;;8.20;99.90;;;;;;5054623;28;20185;-69
2021/11/05 03:47:41;;;;;;;39.57;18.47;;;8.10;99.90;;;;;;5053824;28;20604;-69
2021/11/05 03:50:07;;;;;;;37.93;17.20;;;8.20;99.90;;;;;;5054113;28;20218;-69
2021/11/05 03:52:33;;;;;;;30.73;15.67;;;8.10;99.90;;;;;;5064001;22;20203;-68
2021/11/05 03:54:59;;;;;;;38.23;17.43;;;8.00;99.90;;;;;;5073989;28;20375;-69
2021/11/05 03:57:25;;;;;;;33.63;14.83;;;8.00;99.90;;;;;;5074554;28;20170;-68
2021/11/05 03:59:51;;;;;;;49.93;16.37;;;7.90;99.90;;;;;;5072298;28;20224;-70
2021/11/05 04:02:16;;;;;;;45.67;17.53;;;7.90;99.90;;;;;;5073973;28;20166;-69
2021/11/05 04:04:42;;;;;;;47.17;17.57;;;7.90;99.90;;;;;;5073667;28;20182;-70
2021/11/05 04:07:08;;;;;;;48.77;18.97;;;7.90;99.90;;;;;;5054315;28;20170;-70
2021/11/05 04:09:34;;;;;;;34.93;16.77;;;7.90;99.90;;;;;;5053706;28;20171;-69
2021/11/05 04:11:59;;;;;;;36.07;16.70;;;7.90;99.90;;;;;;5072272;28;20536;-68
2021/11/05 04:14:25;;;;;;;36.07;16.93;;;7.90;99.90;;;;;;5072936;28;20241;-70
2021/11/05 04:16:50;;;;;;;36.20;18.63;;;7.90;99.90;;;;;;5073217;28;20183;-70
2021/11/05 04:19:16;;;;;;;34.73;18.70;;;7.90;99.90;;;;;;5072759;28;20509;-70
2021/11/05 04:21:41;;;;;;;36.57;17.90;;;7.90;99.90;;;;;;5073231;28;20181;-68
2021/11/05 04:24:08;;;;;;;35.27;18.00;;;7.90;99.90;;;;;;5073779;28;20217;-70
2021/11/05 04:26:34;;;;;;;36.33;17.47;;;7.90;99.90;;;;;;5073448;28;20178;-71
2021/11/05 04:29:01;;;;;;;41.47;16.63;;;7.90;99.90;;;;;;5073244;28;20526;-71
2021/11/05 04:31:26;;;;;;;34.23;17.67;;;7.90;99.90;;;;;;5073128;28;20177;-72
2021/11/05 04:33:52;;;;;;;47.63;18.90;;;7.90;99.90;;;;;;5071666;28;20691;-71
2021/11/05 04:36:21;;;;;;;46.77;18.17;;;7.90;99.90;;;;;;5073270;28;20181;-68
2021/11/05 04:38:46;;;;;;;36.27;17.00;;;7.90;99.90;;;;;;5073307;28;20190;-69
2021/11/05 04:41:12;;;;;;;41.70;17.60;;;7.90;99.90;;;;;;5072668;28;20251;-69
2021/11/05 04:43:38;;;;;;;43.70;17.83;;;7.90;99.90;;;;;;5073280;28;20194;-73
2021/11/05 04:46:03;;;;;;;43.60;20.20;;;7.90;99.90;;;;;;5072883;28;20188;-70
2021/11/05 04:48:29;;;;;;;47.43;18.47;;;7.90;99.90;;;;;;5072818;28;20170;-66
2021/11/05 04:50:55;;;;;;;32.87;17.03;;;7.90;99.90;;;;;;5071343;28;20190;-66
2021/11/05 04:53:20;;;;;;;42.23;18.83;;;8.00;99.90;;;;;;5070535;28;20236;-66
2021/11/05 04:55:46;;;;;;;38.27;18.87;;;8.00;99.90;;;;;;5071510;28;20232;-65
2021/11/05 04:58:12;;;;;;;37.93;18.50;;;8.00;99.90;;;;;;5072019;28;20174;-66
2021/11/05 05:00:37;;;;;;;41.17;19.40;;;8.00;99.90;;;;;;5071313;28;20162;-66
2021/11/05 05:03:04;;;;;;;38.03;17.43;;;8.00;99.90;;;;;;5070499;28;20285;-65
2021/11/05 05:05:30;;;;;;;30.77;17.40;;;8.00;99.90;;;;;;5070932;28;20170;-65
2021/11/05 05:07:57;;;;;;;34.87;17.23;;;8.00;99.90;;;;;;5071193;28;20181;-65
2021/11/05 05:10:23;;;;;;;38.20;18.93;;;8.00;99.90;;;;;;5071399;28;20237;-66
2021/11/05 05:12:49;;;;;;;43.73;19.80;;;8.10;99.90;;;;;;5070253;28;20194;-66
2021/11/05 05:15:16;;;;;;;54.60;20.67;;;8.00;99.90;;;;;;5071742;28;20246;-66
2021/11/05 05:17:42;;;;;;;50.87;19.87;;;8.00;99.90;;;;;;5070047;28;20178;-66
2021/11/05 05:20:11;;;;;;;40.97;21.07;;;8.00;99.90;;;;;;5070992;28;20588;-66
2021/11/05 05:22:38;;;;;;;49.37;22.57;;;8.00;99.90;;;;;;5071212;28;20170;-65
2021/11/05 05:25:06;;;;;;;44.63;20.60;;;7.90;99.90;;;;;;5071384;28;20614;-65
2021/11/05 05:27:31;;;;;;;45.10;21.43;;;7.90;99.90;;;;;;5071385;28;20666;-66
2021/11/05 05:29:57;;;;;;;43.73;21.67;;;8.00;99.90;;;;;;5070961;28;20166;-66
2021/11/05 05:32:23;;;;;;;46.67;22.30;;;7.90;99.90;;;;;;5071144;28;20585;-65
2021/11/05 05:34:50;;;;;;;40.63;20.93;;;7.90;99.90;;;;;;5071317;28;20197;-66
2021/11/05 05:37:15;;;;;;;48.63;22.40;;;7.90;99.90;;;;;;5069212;28;20185;-66
2021/11/05 05:39:41;;;;;;;41.53;21.53;;;7.80;99.90;;;;;;5071095;28;20261;-66
2021/11/05 05:42:06;;;;;;;51.47;22.73;;;7.80;99.90;;;;;;5071237;28;20582;-66
2021/11/05 05:44:34;;;;;;;41.97;23.40;;;7.80;99.90;;;;;;5071025;28;20670;-65
2021/11/05 05:47:00;;;;;;;49.33;27.60;;;7.80;99.90;;;;;;5071281;28;20193;-64
2021/11/05 05:49:26;;;;;;;32.73;21.67;;;7.90;99.90;;;;;;5070922;28;20178;-65
2021/11/05 05:51:51;;;;;;;46.17;22.00;;;7.90;99.90;;;;;;5071137;28;20540;-65
2021/11/05 05:54:17;;;;;;;43.23;22.37;;;7.90;99.90;;;;;;5070741;28;20209;-65
2021/11/05 05:56:43;;;;;;;40.00;21.80;;;7.90;99.90;;;;;;5070982;28;20511;-65
2021/11/05 05:59:08;;;;;;;45.60;21.70;;;7.90;99.90;;;;;;5070875;28;20269;-66
2021/11/05 06:01:35;;;;;;;46.67;23.07;;;7.90;99.90;;;;;;5071201;28;20165;-66
2021/11/05 06:04:01;;;;;;;49.33;25.60;;;8.00;99.90;;;;;;5070732;28;20308;-65
2021/11/05 06:06:30;;;;;;;42.60;25.90;;;8.00;99.90;;;;;;5071442;28;20184;-66
2021/11/05 06:08:57;;;;;;;49.97;24.20;;;7.90;99.90;;;;;;5070747;28;20188;-65
2021/11/05 06:11:24;;;;;;;48.67;23.30;;;7.90;99.90;;;;;;5071361;28;20204;-65
2021/11/05 06:13:50;;;;;;;45.80;24.77;;;7.90;99.90;;;;;;5070491;28;20241;-66
2021/11/05 06:16:16;;;;;;;48.87;23.53;;;7.80;99.90;;;;;;5071103;28;20167;-66
2021/11/05 06:18:41;;;;;;;51.90;22.60;;;7.80;99.90;;;;;;5070739;28;20181;-65
2021/11/05 06:21:07;;;;;;;34.90;21.33;;;7.80;99.90;;;;;;5070866;28;20178;-65
2021/11/05 06:23:33;;;;;;;47.80;26.30;;;7.60;99.90;;;;;;5070828;28;20206;-65
2021/11/05 06:25:58;;;;;;;47.17;23.87;;;7.50;99.90;;;;;;5074534;28;20266;-65
2021/11/05 06:28:25;;;;;;;48.80;24.80;;;7.50;99.90;;;;;;5074548;28;20178;-66
2021/11/05 06:30:51;;;;;;;38.13;22.97;;;7.50;99.90;;;;;;5074175;28;20174;-66
2021/11/05 06:33:18;;;;;;;39.77;23.37;;;7.50;99.90;;;;;;5074226;28;20212;-67
2021/11/05 06:35:45;;;;;;;44.77;25.03;;;7.50;99.90;;;;;;5074256;28;20183;-65
2021/11/05 06:38:11;;;;;;;39.37;24.67;;;7.50;99.90;;;;;;5074359;28;20166;-65
2021/11/05 06:40:37;;;;;;;49.27;26.23;;;7.50;99.90;;;;;;5073909;28;20193;-65
2021/11/05 06:43:03;;;;;;;52.17;26.37;;;7.40;99.90;;;;;;5074407;28;20539;-65
2021/11/05 06:45:30;;;;;;;44.70;26.37;;;7.40;99.90;;;;;;5074477;28;20305;-65
2021/11/05 06:47:56;;;;;;;47.20;25.97;;;7.40;99.90;;;;;;5072843;28;20561;-63
2021/11/05 06:50:22;;;;;;;60.70;26.97;;;7.40;99.90;;;;;;5074098;28;20167;-64
2021/11/05 06:52:48;;;;;;;51.27;26.33;;;7.40;99.90;;;;;;5072535;28;20213;-66
2021/11/05 06:55:14;;;;;;;50.80;28.23;;;7.40;99.90;;;;;;5074525;28;20193;-66
2021/11/05 06:57:40;;;;;;;47.03;27.23;;;7.30;99.90;;;;;;5073652;28;20507;-66
2021/11/05 07:00:09;;;;;;;52.23;29.50;;;7.40;99.90;;;;;;5064062;28;20639;-65
2021/11/05 07:02:40;;;;;;;53.53;26.90;;;7.40;99.90;;;;;;5054188;28;20171;-65
2021/11/05 07:05:09;;;;;;;49.73;27.43;;;7.40;99.90;;;;;;5072106;28;20185;-66
2021/11/05 07:07:35;;;;;;;57.90;28.40;;;7.50;99.90;;;;;;5074198;28;20178;-66
2021/11/05 07:10:01;;;;;;;52.87;28.67;;;7.60;99.90;;;;;;5073320;28;20182;-65
2021/11/05 07:12:26;;;;;;;66.37;29.10;;;7.60;99.90;;;;;;5073798;28;20162;-64
2021/11/05 07:14:52;;;;;;;53.37;28.60;;;7.50;99.90;;;;;;5073271;28;20233;-65
2021/11/05 07:17:18;;;;;;;51.23;28.37;;;7.40;99.90;;;;;;5059320;28;20651;-66
2021/11/05 07:19:43;;;;;;;51.70;28.77;;;7.50;99.90;;;;;;5054208;28;20175;-65
2021/11/05 07:22:09;;;;;;;45.60;27.17;;;7.50;99.90;;;;;;5073546;28;20170;-65
2021/11/05 07:24:36;;;;;;;48.47;26.93;;;7.50;99.90;;;;;;5072324;28;20206;-66
2021/11/05 07:27:02;;;;;;;59.43;28.83;;;7.50;99.90;;;;;;5071536;28;20189;-65
2021/11/05 07:29:28;;;;;;;52.90;27.80;;;7.60;99.90;;;;;;5073232;28;20174;-65
2021/11/05 07:32:00;;;;;;;53.60;28.13;;;7.60;99.90;;;;;;5072809;28;20185;-65
2021/11/05 07:34:30;;;;;;;53.63;28.97;;;7.60;99.90;;;;;;5072999;28;20689;-65
2021/11/05 07:37:00;;;;;;;49.47;26.43;;;7.70;99.90;;;;;;5071558;28;20174;-65
2021/11/05 07:39:26;;;;;;;48.80;27.33;;;7.70;99.90;;;;;;5053201;28;20190;-65
2021/11/05 07:41:51;;;;;;;59.63;28.40;;;7.80;99.90;;;;;;5053220;28;20167;-65
2021/11/05 07:44:17;;;;;;;44.10;26.70;;;7.90;99.90;;;;;;5068435;28;20540;-66
2021/11/05 07:46:45;;;;;;;53.93;27.43;;;8.10;99.90;;;;;;5073041;28;20181;-66
2021/11/05 07:49:10;;;;;;;41.77;26.93;;;8.20;99.90;;;;;;5071243;28;20186;-65
2021/11/05 07:51:37;;;;;;;37.83;24.37;;;8.10;99.90;;;;;;5072978;28;20263;-66
2021/11/05 07:54:04;;;;;;;40.93;26.60;;;8.10;99.90;;;;;;5072132;28;20579;-66
2021/11/05 07:56:29;;;;;;;38.70;27.53;;;8.10;99.90;;;;;;5073094;28;20166;-65
2021/11/05 07:58:55;;;;;;;42.10;26.67;;;8.10;99.90;;;;;;5072233;28;20303;-66
2021/11/05 08:01:22;;;;;;;45.40;26.10;;;8.30;99.90;;;;;;5072824;28;20202;-66
2021/11/05 08:03:48;;;;;;;49.00;29.13;;;8.40;99.90;;;;;;5073099;28;20738;-67
2021/11/05 08:06:14;;;;;;;59.43;33.00;;;8.40;99.90;;;;;;5072801;28;20177;-66
2021/11/05 08:08:39;;;;;;;52.20;32.43;;;8.50;99.90;;;;;;5072377;28;20197;-66
2021/11/05 08:11:05;;;;;;;49.53;30.63;;;8.60;99.90;;;;;;5072388;28;20253;-66
2021/11/05 08:13:31;;;;;;;48.57;30.07;;;8.60;99.90;;;;;;5072172;28;20214;-65
2021/11/05 08:15:56;;;;;;;56.83;30.60;;;8.70;99.90;;;;;;5072356;28;20166;-65
2021/11/05 08:18:22;;;;;;;44.97;28.47;;;8.80;99.90;;;;;;5072402;28;20228;-66
2021/11/05 08:20:48;;;;;;;49.73;31.93;;;8.90;99.90;;;;;;5072015;28;20170;-66
2021/11/05 08:23:14;;;;;;;37.77;25.47;;;8.80;99.90;;;;;;5072049;28;20202;-66
2021/11/05 08:25:40;;;;;;;37.70;24.40;;;8.90;99.90;;;;;;5072419;28;20208;-66
2021/11/05 08:28:05;;;;;;;33.50;26.23;;;9.00;99.90;;;;;;5072352;28;20182;-66
2021/11/05 08:30:31;;;;;;;33.93;23.37;;;9.00;99.90;;;;;;5072042;28;20517;-68
2021/11/05 08:32:59;;;;;;;35.37;23.33;;;9.00;99.90;;;;;;5071880;28;20709;-65
2021/11/05 08:35:27;;;;;;;27.50;21.73;;;9.00;99.90;;;;;;5071871;28;20174;-66
2021/11/05 08:37:53;;;;;;;31.37;22.97;;;9.00;99.90;;;;;;5071969;28;20170;-66
2021/11/05 08:40:19;;;;;;;29.90;22.27;;;9.10;99.90;;;;;;5070404;28;20564;-66
2021/11/05 08:42:45;;;;;;;28.20;21.00;;;9.20;99.90;;;;;;5071584;28;20404;-66
2021/11/05 08:45:11;;;;;;;31.37;22.20;;;9.20;99.90;;;;;;5072013;28;20162;-66
2021/11/05 08:47:40;;;;;;;28.73;21.73;;;9.30;99.90;;;;;;5070975;28;20284;-66
2021/11/05 08:50:15;;;;;;;29.40;22.27;;;9.20;99.90;;;;;;5071413;28;20650;-66
2021/11/05 08:52:41;;;;;;;29.70;20.37;;;9.10;99.90;;;;;;5071200;28;20283;-66
2021/11/05 08:55:08;;;;;;;28.77;21.10;;;9.10;99.90;;;;;;5071557;28;20193;-66
2021/11/05 08:57:35;;;;;;;22.10;18.33;;;9.20;99.90;;;;;;5071828;28;20158;-66
2021/11/05 09:00:09;;;;;;;25.27;19.27;;;9.40;99.90;;;;;;5070996;28;20181;-65
2021/11/05 09:02:35;;;;;;;23.47;18.57;;;9.40;99.90;;;;;;5071989;28;20207;-65
2021/11/05 09:05:01;;;;;;;21.37;19.03;;;9.40;99.90;;;;;;5071326;28;20174;-66
2021/11/05 09:07:28;;;;;;;20.97;17.63;;;9.60;99.90;;;;;;5070181;28;20206;-66
2021/11/05 09:09:53;;;;;;;24.50;20.03;;;9.70;99.90;;;;;;5071327;28;20714;-66
2021/11/05 09:12:19;;;;;;;21.97;17.80;;;9.80;99.90;;;;;;5070132;28;20261;-66
2021/11/05 09:14:45;;;;;;;21.50;17.43;;;9.90;99.90;;;;;;5070962;28;20243;-66
2021/11/05 09:17:10;;;;;;;21.90;17.90;;;10.00;99.90;;;;;;5071616;28;20619;-65
2021/11/05 09:19:36;;;;;;;19.10;16.93;;;10.20;99.90;;;;;;5071069;28;20174;-65
2021/11/05 09:22:02;;;;;;;24.97;18.53;;;10.20;99.90;;;;;;5071264;28;20295;-64
2021/11/05 09:24:28;;;;;;;21.73;17.53;;;10.20;99.90;;;;;;5071520;28;20690;-65
2021/11/05 09:26:54;;;;;;;22.57;17.30;;;10.30;99.90;;;;;;5071158;28;20170;-66
2021/11/05 09:29:20;;;;;;;17.47;15.30;;;10.50;99.90;;;;;;5071367;28;20186;-66
2021/11/05 09:31:46;;;;;;;18.93;16.70;;;10.80;99.90;;;;;;5071364;28;20568;-66
2021/11/05 09:34:11;;;;;;;17.23;14.70;;;10.90;99.90;;;;;;5070954;28;20206;-66
2021/11/05 09:36:37;;;;;;;18.70;14.70;;;11.10;99.90;;;;;;5071428;28;20219;-66
2021/11/05 09:39:03;;;;;;;15.47;13.93;;;11.20;99.90;;;;;;5070801;28;20174;-66
2021/11/05 09:41:29;;;;;;;15.40;13.80;;;11.20;99.90;;;;;;5071303;28;20181;-65
2021/11/05 09:43:55;;;;;;;16.10;13.23;;;11.20;99.90;;;;;;5070927;28;20198;-65
2021/11/05 09:46:21;;;;;;;17.47;14.40;;;11.10;99.90;;;;;;5071077;28;20627;-66
2021/11/05 09:48:48;;;;;;;13.77;12.47;;;11.20;99.90;;;;;;5070873;28;20178;-65
2021/11/05 09:51:14;;;;;;;16.43;12.83;;;11.30;99.90;;;;;;5070847;28;20193;-66
2021/11/05 09:53:40;;;;;;;13.97;12.27;;;11.40;99.90;;;;;;5101657;22;20226;-65
2021/11/05 09:56:09;;;;;;;14.57;13.07;;;11.50;99.90;;;;;;5050753;28;20175;-66
2021/11/05 09:58:38;;;;;;;13.67;12.27;;;11.60;99.90;;;;;;5053022;28;20163;-65
2021/11/05 10:01:06;;;;;;;11.47;10.37;;;12.00;99.90;;;;;;5054330;28;20175;-66
2021/11/05 10:03:32;;;;;;;12.33;10.87;;;12.20;99.90;;;;;;5055072;28;20217;-65
2021/11/05 10:05:58;;;;;;;12.73;11.43;;;12.20;99.90;;;;;;5054805;28;20185;-66
2021/11/05 10:08:31;;;;;;;10.83;9.90;;;12.30;99.90;;;;;;5054840;28;20167;-66
2021/11/05 10:10:57;;;;;;;14.13;12.63;;;12.50;99.90;;;;;;5054540;28;20183;-66
2021/11/05 10:13:24;;;;;;;12.90;11.60;;;12.40;99.90;;;;;;5055179;28;20249;-65
2021/11/05 10:15:53;;;;;;;12.63;11.33;;;12.30;99.90;;;;;;5054972;28;20171;-65
2021/11/05 10:18:24;;;;;;;12.30;11.20;;;12.30;99.90;;;;;;5054824;28;20640;-66
2021/11/05 10:21:14;;;;;;;12.93;11.57;;;12.30;99.90;;;;;;5034523;28;20227;-65
2021/11/05 10:23:42;;;;;;;12.73;11.43;;;12.50;99.90;;;;;;5036665;28;20187;-65
2021/11/05 10:26:28;;;;;;;12.57;11.37;;;12.80;99.90;;;;;;5055050;28;20182;-65
2021/11/05 10:28:53;;;;;;;11.80;10.73;;;13.00;99.90;;;;;;5054250;28;20237;-65
2021/11/05 10:31:23;;;;;;;11.63;10.63;;;13.30;99.90;;;;;;5053217;28;20179;-65
2021/11/05 10:33:49;;;;;;;15.97;12.07;;;13.60;99.90;;;;;;5054108;28;20297;-66
2021/11/05 10:36:18;;;;;;;11.47;10.37;;;13.60;99.90;;;;;;5054960;28;20179;-65
2021/11/05 10:38:51;;;;;;;11.23;10.13;;;13.90;99.90;;;;;;5054257;28;20163;-65
2021/11/05 10:41:20;;;;;;;11.23;10.03;;;14.20;99.90;;;;;;5054274;28;20202;-65
2021/11/05 10:43:54;;;;;;;11.50;9.33;;;14.00;99.90;;;;;;5054031;28;20191;-65
2021/11/05 10:46:27;;;;;;;19.90;14.33;;;13.70;99.90;;;;;;5034731;28;20182;-65
2021/11/05 10:48:55;;;;;;;11.43;10.47;;;13.70;99.90;;;;;;5052980;28;20644;-65
2021/11/05 10:51:24;;;;;;;11.73;10.73;;;13.90;99.90;;;;;;5054262;28;20178;-65
2021/11/05 10:53:49;;;;;;;11.10;9.93;;;14.20;99.90;;;;;;5053477;28;20206;-65
2021/11/05 10:56:16;;;;;;;11.43;10.40;;;14.60;99.90;;;;;;5054147;28;20163;-65
2021/11/05 10:59:03;;;;;;;10.83;9.83;;;14.70;99.90;;;;;;5053813;28;20175;-65
2021/11/05 11:01:34;;;;;;;9.70;8.80;;;14.40;99.90;;;;;;5053863;28;20189;-65
2021/11/05 11:04:11;;;;;;;11.23;9.93;;;14.10;99.90;;;;;;5053203;28;20636;-65
2021/11/05 11:06:44;;;;;;;10.67;9.77;;;14.10;99.90;;;;;;5052766;28;20170;-65
2021/11/05 11:09:13;;;;;;;8.57;7.87;;;14.40;99.90;;;;;;5053392;28;20175;-65
2021/11/05 11:11:50;;;;;;;8.80;8.07;;;14.70;99.90;;;;;;5053156;28;20175;-65
2021/11/05 11:14:22;;;;;;;8.83;8.13;;;14.50;99.90;;;;;;5053672;28;20357;-65
2021/11/05 11:16:58;;;;;;;8.93;8.23;;;14.10;99.90;;;;;;5053280;28;20207;-65
2021/11/05 11:19:30;;;;;;;10.40;9.00;;;13.80;99.90;;;;;;5052331;28;20656;-65
2021/11/05 11:21:57;;;;;;;10.00;9.17;;;13.20;99.90;;;;;;5052980;28;20179;-65
2021/11/05 11:24:28;;;;;;;9.90;9.03;;;12.70;99.90;;;;;;5053409;28;20733;-65
2021/11/05 11:26:54;;;;;;;11.07;9.97;;;12.60;99.90;;;;;;5053121;28;20175;-65
2021/11/05 11:29:22;;;;;;;11.20;9.97;;;12.40;99.90;;;;;;5053290;28;20175;-64
2021/11/05 11:31:50;;;;;;;10.97;9.97;;;12.40;99.90;;;;;;5051839;28;20181;-65
2021/11/05 11:34:17;;;;;;;11.40;9.73;;;12.40;99.90;;;;;;5053155;28;20202;-65
2021/11/05 11:36:46;;;;;;;11.57;10.40;;;12.40;99.90;;;;;;5053188;28;20183;-65
2021/11/05 11:39:15;;;;;;;12.63;10.73;;;12.40;99.90;;;;;;5034924;28;20179;-65
2021/11/05 11:41:42;;;;;;;10.73;9.83;;;12.10;99.90;;;;;;5033161;28;20587;-65
2021/11/05 11:44:12;;;;;;;11.43;10.30;;;12.00;99.90;;;;;;5045370;28;20702;-65
2021/11/05 11:46:57;;;;;;;12.37;10.90;;;12.10;99.90;;;;;;5052838;28;20189;-65
2021/11/05 11:49:38;;;;;;;10.43;9.63;;;12.30;99.90;;;;;;5052513;28;20183;-65
2021/11/05 11:52:06;;;;;;;10.03;9.00;;;12.50;99.90;;;;;;5052844;28;20189;-63
2021/11/05 11:54:35;;;;;;;11.03;10.03;;;12.70;99.90;;;;;;5052117;28;20309;-65
2021/11/05 11:57:17;;;;;;;9.40;8.70;;;13.00;99.90;;;;;;5052746;28;20774;-65
2021/11/05 11:59:46;;;;;;;9.97;9.07;;;13.10;99.90;;;;;;5052329;28;20533;-65
2021/11/05 12:02:36;;;;;;;10.33;9.40;;;13.10;99.90;;;;;;5051512;28;20182;-66
2021/11/05 12:05:23;;;;;;;10.13;9.20;;;13.10;99.90;;;;;;5052449;28;20187;-65
2021/11/05 12:08:26;;;;;;;8.80;8.10;;;13.50;99.90;;;;;;5051226;28;20667;-65
2021/11/05 12:11:20;;;;;;;9.23;8.33;;;14.30;99.90;;;;;;5052021;28;20205;-65
2021/11/05 12:13:47;;;;;;;7.90;7.40;;;14.50;99.90;;;;;;5052667;28;20750;-65
2021/11/05 12:16:15;;;;;;;8.87;8.07;;;14.30;99.90;;;;;;5052723;28;20266;-65
2021/11/05 12:21:34;;;;;;;8.53;7.93;;;14.20;99.90;;;;;;5052147;28;20644;-65
2021/11/05 12:24:12;;;;;;;8.23;7.63;;;14.10;99.90;;;;;;5052369;28;20216;-65
2021/11/05 12:26:48;;;;;;;8.60;7.90;;;13.90;99.90;;;;;;5052159;28;20174;-65
2021/11/05 12:29:31;;;;;;;8.00;7.40;;;13.80;99.90;;;;;;5052217;28;20185;-65
2021/11/05 12:32:18;;;;;;;8.73;8.07;;;13.70;99.90;;;;;;5052003;28;20232;-65
2021/11/05 12:34:56;;;;;;;7.63;7.13;;;13.40;99.90;;;;;;5037830;28;20225;-65
2021/11/05 12:37:32;;;;;;;8.47;7.77;;;13.30;99.90;;;;;;5052110;28;20163;-65
2021/11/05 12:40:27;;;;;;;9.33;8.33;;;13.00;99.90;;;;;;5051628;28;20185;-65